createdAt,value
2018-09-03T00:01:15.132Z,8.57
2018-09-03T00:03:44.280Z,7.60
2018-09-03T00:06:13.476Z,8.13
2018-09-03T00:08:42.428Z,8.47
2018-09-03T00:11:11.717Z,7.63
2018-09-03T00:13:41.059Z,6.93
2018-09-03T00:16:10.303Z,7.23
2018-09-03T00:18:39.300Z,7.30
2018-09-03T00:21:08.445Z,8.03
2018-09-03T00:23:37.680Z,7.27
2018-09-03T00:26:07.016Z,7.27
2018-09-03T00:28:36.253Z,7.00
2018-09-03T00:31:10.376Z,7.20
2018-09-03T00:33:44.919Z,6.77
2018-09-03T00:36:19.363Z,7.03
2018-09-03T00:38:53.235Z,7.67
2018-09-03T00:41:27.135Z,7.33
2018-09-03T00:44:00.298Z,7.80
2018-09-03T00:46:34.984Z,7.50
2018-09-03T00:49:04.276Z,7.23
2018-09-03T00:51:33.242Z,6.93
2018-09-03T00:54:02.636Z,6.90
2018-09-03T00:56:31.873Z,6.97
2018-09-03T00:59:01.086Z,7.50
2018-09-03T01:01:30.142Z,7.30
2018-09-03T01:03:59.420Z,7.33
2018-09-03T01:06:28.596Z,7.13
2018-09-03T01:08:58.052Z,7.17
2018-09-03T01:11:27.010Z,7.40
2018-09-03T01:13:56.858Z,6.90
2018-09-03T01:16:25.911Z,7.23
2018-09-03T01:18:56.452Z,7.50
2018-09-03T01:21:26.591Z,7.03
2018-09-03T01:23:56.312Z,6.80
2018-09-03T01:26:25.558Z,6.83
2018-09-03T01:28:54.735Z,7.03
2018-09-03T01:31:23.880Z,7.53
2018-09-03T01:33:54.039Z,7.90
2018-09-03T01:36:23.263Z,8.13
2018-09-03T01:38:52.448Z,7.73
2018-09-03T01:41:21.692Z,7.87
2018-09-03T01:43:50.811Z,7.57
2018-09-03T01:46:20.166Z,6.63
2018-09-03T01:48:49.288Z,7.53
2018-09-03T01:51:18.253Z,7.60
2018-09-03T01:53:47.658Z,7.53
2018-09-03T01:56:16.849Z,7.73
2018-09-03T01:58:46.003Z,7.57
2018-09-03T02:01:15.224Z,7.67
2018-09-03T02:03:44.727Z,7.17
2018-09-03T02:06:14.173Z,7.77
2018-09-03T02:08:43.024Z,7.70
2018-09-03T02:11:12.316Z,7.97
2018-09-03T02:13:41.610Z,6.50
2018-09-03T02:16:10.915Z,7.73
2018-09-03T02:18:40.182Z,7.53
2018-09-03T02:21:09.664Z,8.17
2018-09-03T02:23:39.285Z,8.57
2018-09-03T02:26:08.523Z,8.90
2018-09-03T02:28:37.723Z,8.63
2018-09-03T02:31:07.114Z,8.10
2018-09-03T02:33:36.524Z,8.03
2018-09-03T02:36:06.075Z,7.17
2018-09-03T02:38:35.211Z,7.70
2018-09-03T02:41:04.628Z,7.70
2018-09-03T02:43:33.540Z,8.30
2018-09-03T02:46:02.810Z,8.13
2018-09-03T02:48:31.871Z,8.00
2018-09-03T02:51:01.251Z,8.23
2018-09-03T02:53:30.360Z,8.23
2018-09-03T02:55:59.385Z,8.03
2018-09-03T02:58:28.551Z,8.30
2018-09-03T03:00:57.988Z,9.23
2018-09-03T03:03:27.195Z,8.43
2018-09-03T03:05:56.264Z,8.47
2018-09-03T03:08:25.504Z,8.80
2018-09-03T03:10:54.573Z,7.93
2018-09-03T03:13:23.801Z,8.07
2018-09-03T03:15:52.874Z,8.07
2018-09-03T03:18:22.260Z,9.40
2018-09-03T03:20:51.706Z,8.07
2018-09-03T03:23:21.031Z,8.33
2018-09-03T03:25:50.416Z,9.47
2018-09-03T03:28:19.805Z,8.57
2018-09-03T03:30:48.967Z,8.13
2018-09-03T03:33:18.235Z,8.30
2018-09-03T03:35:47.203Z,8.53
2018-09-03T03:38:16.152Z,8.10
2018-09-03T03:40:45.294Z,8.00
2018-09-03T03:43:14.543Z,9.10
2018-09-03T03:45:43.745Z,8.73
2018-09-03T03:48:12.975Z,8.23
2018-09-03T03:50:42.237Z,8.37
2018-09-03T03:53:11.470Z,7.60
2018-09-03T03:55:40.771Z,8.27
2018-09-03T03:58:10.159Z,7.63
2018-09-03T04:00:39.559Z,8.13
2018-09-03T04:03:08.516Z,8.03
2018-09-03T04:05:37.804Z,7.50
2018-09-03T04:08:07.008Z,8.03
2018-09-03T04:10:36.256Z,7.30
2018-09-03T04:13:06.025Z,7.87
2018-09-03T04:15:36.300Z,7.50
2018-09-03T04:18:05.427Z,7.73
2018-09-03T04:20:34.641Z,7.63
2018-09-03T04:23:03.940Z,8.10
2018-09-03T04:25:33.151Z,8.43
2018-09-03T04:28:02.627Z,7.63
2018-09-03T04:30:31.827Z,8.77
2018-09-03T04:33:00.984Z,8.40
2018-09-03T04:35:30.172Z,8.00
2018-09-03T04:37:59.224Z,7.97
2018-09-03T04:40:28.353Z,7.30
2018-09-03T04:42:57.616Z,7.83
2018-09-03T04:45:26.655Z,7.60
2018-09-03T04:47:56.020Z,7.53
2018-09-03T04:50:25.319Z,8.30
2018-09-03T04:52:54.453Z,6.63
2018-09-03T04:55:23.876Z,6.57
2018-09-03T04:57:53.141Z,6.90
2018-09-03T05:00:22.480Z,7.00
2018-09-03T05:02:51.695Z,7.03
2018-09-03T05:05:21.019Z,7.50
2018-09-03T05:07:50.393Z,8.10
2018-09-03T05:10:19.587Z,7.17
2018-09-03T05:12:50.176Z,7.80
2018-09-03T05:15:19.661Z,7.10
2018-09-03T05:17:48.992Z,7.80
2018-09-03T05:20:18.308Z,7.43
2018-09-03T05:22:47.554Z,8.53
2018-09-03T05:25:16.935Z,7.63
2018-09-03T05:27:46.095Z,8.13
2018-09-03T05:30:15.353Z,8.53
2018-09-03T05:32:44.743Z,8.33
2018-09-03T05:35:14.108Z,11.40
2018-09-03T05:37:43.463Z,12.73
2018-09-03T05:40:12.419Z,15.97
2018-09-03T05:42:41.831Z,15.20
2018-09-03T05:45:10.906Z,11.57
2018-09-03T05:47:40.411Z,11.33
2018-09-03T05:50:09.722Z,9.77
2018-09-03T05:52:39.149Z,9.10
2018-09-03T05:55:08.438Z,8.97
2018-09-03T05:57:37.796Z,8.30
2018-09-03T06:00:07.542Z,7.47
2018-09-03T06:02:36.512Z,7.63
2018-09-03T06:05:05.615Z,7.67
2018-09-03T06:07:34.920Z,8.07
2018-09-03T06:10:04.246Z,7.70
2018-09-03T06:12:33.272Z,11.43
2018-09-03T06:15:02.309Z,11.70
2018-09-03T06:17:31.736Z,10.13
2018-09-03T06:20:00.936Z,8.77
2018-09-03T06:22:30.317Z,8.33
2018-09-03T06:24:59.639Z,7.50
2018-09-03T06:27:28.691Z,8.33
2018-09-03T06:29:57.895Z,7.17
2018-09-03T06:32:27.168Z,7.83
2018-09-03T06:34:56.513Z,7.50
2018-09-03T06:37:25.863Z,7.83
2018-09-03T06:39:55.214Z,8.40
2018-09-03T06:42:24.517Z,7.87
2018-09-03T06:44:53.622Z,8.00
2018-09-03T06:47:23.003Z,8.00
2018-09-03T06:49:52.143Z,7.83
2018-09-03T06:52:21.357Z,8.03
2018-09-03T06:54:50.716Z,7.80
2018-09-03T06:57:20.152Z,7.60
2018-09-03T06:59:49.149Z,7.63
2018-09-03T07:02:18.377Z,7.80
2018-09-03T07:04:47.848Z,7.87
2018-09-03T07:07:16.957Z,7.93
2018-09-03T07:09:46.404Z,8.17
2018-09-03T07:12:15.748Z,7.40
2018-09-03T07:14:44.739Z,7.93
2018-09-03T07:17:13.926Z,8.10
2018-09-03T07:19:43.139Z,8.10
2018-09-03T07:22:12.589Z,8.40
2018-09-03T07:24:41.935Z,8.90
2018-09-03T07:27:11.307Z,8.47
2018-09-03T07:29:40.730Z,8.23
2018-09-03T07:32:10.107Z,8.03
2018-09-03T07:34:39.338Z,8.27
2018-09-03T07:37:08.524Z,8.37
2018-09-03T07:39:37.792Z,7.90
2018-09-03T07:42:07.099Z,8.10
2018-09-03T07:44:36.266Z,8.10
2018-09-03T07:47:05.672Z,8.77
2018-09-03T07:49:35.036Z,8.53
2018-09-03T07:52:04.380Z,8.80
2018-09-03T07:54:33.331Z,10.00
2018-09-03T07:57:02.771Z,9.17
2018-09-03T07:59:32.065Z,8.77
2018-09-03T08:02:01.659Z,7.77
2018-09-03T08:04:31.180Z,7.83
2018-09-03T08:07:00.620Z,8.77
2018-09-03T08:09:29.863Z,8.17
2018-09-03T08:11:59.078Z,7.83
2018-09-03T08:14:28.474Z,7.07
2018-09-03T08:16:57.728Z,7.97
2018-09-03T08:19:26.930Z,7.77
2018-09-03T08:21:55.943Z,7.23
2018-09-03T08:24:25.352Z,7.53
2018-09-03T08:26:54.741Z,7.33
2018-09-03T08:29:23.699Z,7.08
2018-09-03T08:31:53.155Z,7.53
2018-09-03T08:34:22.200Z,7.25
2018-09-03T08:36:51.445Z,7.15
2018-09-03T08:39:20.506Z,6.97
2018-09-03T08:41:49.836Z,7.28
2018-09-03T08:44:18.735Z,7.28
2018-09-03T08:46:47.999Z,6.90
2018-09-03T08:49:17.389Z,6.85
2018-09-03T08:51:46.280Z,6.83
2018-09-03T08:54:15.472Z,7.12
2018-09-03T08:56:44.703Z,6.45
2018-09-03T08:59:14.118Z,6.42
2018-09-03T09:01:43.521Z,7.30
2018-09-03T09:04:12.723Z,7.35
2018-09-03T09:06:41.725Z,6.75
2018-09-03T09:09:10.925Z,6.40
2018-09-03T09:11:40.118Z,7.65
2018-09-03T09:14:09.496Z,7.00
2018-09-03T09:16:38.596Z,6.75
2018-09-03T09:19:07.676Z,7.50
2018-09-03T09:21:36.936Z,6.90
2018-09-03T09:24:06.386Z,7.40
2018-09-03T09:26:35.894Z,7.20
2018-09-03T09:29:05.340Z,7.70
2018-09-03T09:31:34.811Z,6.93
2018-09-03T09:34:03.668Z,8.27
2018-09-03T09:36:33.010Z,7.30
2018-09-03T09:39:02.393Z,7.87
2018-09-03T09:41:34.123Z,7.17
2018-09-03T09:44:04.411Z,6.75
2018-09-03T09:46:33.834Z,6.72
2018-09-03T09:49:03.165Z,6.47
2018-09-03T09:51:32.521Z,6.12
2018-09-03T09:54:01.414Z,6.25
2018-09-03T09:56:30.485Z,6.67
2018-09-03T09:58:59.780Z,7.05
2018-09-03T10:01:35.862Z,6.87
2018-09-03T10:04:04.970Z,6.33
2018-09-03T10:06:34.283Z,6.47
2018-09-03T10:09:04.467Z,6.60
2018-09-03T10:11:33.821Z,6.95
2018-09-03T10:14:03.179Z,6.42
2018-09-03T10:19:09.522Z,6.28
2018-09-03T10:21:38.762Z,6.90
2018-09-03T10:24:07.669Z,6.80
2018-09-03T10:26:37.093Z,7.33
2018-09-03T10:29:06.323Z,6.55
2018-09-03T10:31:35.388Z,6.92
2018-09-03T10:34:04.640Z,6.40
2018-09-03T10:36:33.935Z,6.87
2018-09-03T10:39:03.366Z,6.67
2018-09-03T10:41:32.576Z,6.97
2018-09-03T10:44:01.767Z,7.10
2018-09-03T10:46:31.001Z,6.00
2018-09-03T10:49:00.235Z,7.10
2018-09-03T10:51:29.411Z,6.45
2018-09-03T10:53:58.550Z,6.60
2018-09-03T10:56:27.571Z,6.55
2018-09-03T10:58:56.912Z,5.97
2018-09-03T11:01:25.856Z,6.85
2018-09-03T11:03:55.199Z,6.25
2018-09-03T11:06:24.453Z,6.20
2018-09-03T11:08:53.493Z,6.28
2018-09-03T11:11:22.777Z,5.60
2018-09-03T11:13:52.045Z,6.28
2018-09-03T11:16:21.436Z,5.85
2018-09-03T11:18:50.515Z,5.65
2018-09-03T11:21:20.364Z,7.03
2018-09-03T11:23:49.560Z,5.67
2018-09-03T11:26:18.681Z,5.80
2018-09-03T11:28:47.830Z,5.85
2018-09-03T11:31:17.090Z,6.28
2018-09-03T11:33:46.276Z,5.92
2018-09-03T11:36:15.235Z,5.65
2018-09-03T11:38:44.575Z,6.30
2018-09-03T11:41:13.883Z,6.12
2018-09-03T11:43:43.093Z,6.28
2018-09-03T11:46:12.469Z,5.80
2018-09-03T11:48:41.483Z,5.58
2018-09-03T11:51:10.741Z,5.97
2018-09-03T11:53:40.135Z,5.25
2018-09-03T11:56:09.349Z,6.00
2018-09-03T11:58:38.520Z,5.95
2018-09-03T12:01:08.057Z,5.67
2018-09-03T12:03:37.249Z,5.42
2018-09-03T12:06:06.702Z,6.33
2018-09-03T12:08:35.927Z,6.37
2018-09-03T12:11:05.353Z,5.85
2018-09-03T12:13:34.555Z,5.17
2018-09-03T12:16:09.688Z,5.60
2018-09-03T12:18:39.790Z,5.80
2018-09-03T12:21:09.099Z,5.37
2018-09-03T12:23:38.216Z,5.62
2018-09-03T12:26:08.311Z,5.83
2018-09-03T12:28:37.761Z,5.33
2018-09-03T12:31:07.316Z,5.65
2018-09-03T12:33:36.530Z,6.53
2018-09-03T12:36:06.383Z,5.92
2018-09-03T12:38:35.930Z,5.60
2018-09-03T12:41:06.061Z,5.83
2018-09-03T12:43:35.775Z,6.12
2018-09-03T12:46:06.358Z,5.58
2018-09-03T12:48:35.315Z,5.72
2018-09-03T12:51:05.258Z,5.90
2018-09-03T12:53:35.820Z,6.00
2018-09-03T12:56:05.204Z,5.60
2018-09-03T12:58:34.483Z,5.80
2018-09-03T13:01:03.555Z,6.08
2018-09-03T13:03:32.885Z,5.33
2018-09-03T13:06:02.054Z,5.75
2018-09-03T13:08:31.273Z,5.47
2018-09-03T13:11:00.664Z,5.97
2018-09-03T13:13:29.916Z,6.50
2018-09-03T13:15:59.180Z,6.85
2018-09-03T13:18:28.064Z,6.12
2018-09-03T13:20:57.016Z,6.55
2018-09-03T13:23:26.019Z,6.12
2018-09-03T13:25:55.315Z,5.62
2018-09-03T13:28:24.614Z,6.28
2018-09-03T13:30:53.634Z,5.85
2018-09-03T13:33:22.881Z,6.60
2018-09-03T13:35:51.998Z,6.28
2018-09-03T13:38:21.011Z,5.70
2018-09-03T13:40:50.133Z,6.17
2018-09-03T13:43:19.396Z,5.80
2018-09-03T13:45:48.591Z,5.95
2018-09-03T13:48:17.844Z,6.47
2018-09-03T13:50:46.685Z,6.80
2018-09-03T13:53:16.028Z,6.40
2018-09-03T13:55:45.196Z,6.37
2018-09-03T13:58:14.414Z,5.67
2018-09-03T14:00:43.615Z,6.50
2018-09-03T14:03:12.926Z,5.70
2018-09-03T14:05:42.224Z,5.80
2018-09-03T14:08:11.475Z,6.03
2018-09-03T14:10:40.665Z,6.03
2018-09-03T14:13:09.710Z,5.83
2018-09-03T14:15:38.884Z,5.90
2018-09-03T14:18:08.423Z,6.27
2018-09-03T14:20:37.550Z,5.70
2018-09-03T14:23:06.960Z,6.13
2018-09-03T14:25:36.200Z,5.37
2018-09-03T14:28:05.459Z,6.23
2018-09-03T14:30:34.853Z,5.60
2018-09-03T14:33:04.036Z,6.07
2018-09-03T14:35:32.872Z,6.27
2018-09-03T14:38:01.767Z,6.10
2018-09-03T14:40:31.039Z,5.90
2018-09-03T14:43:00.095Z,6.60
2018-09-03T14:45:29.221Z,6.57
2018-09-03T14:47:58.717Z,6.40
2018-09-03T14:50:27.615Z,5.30
2018-09-03T14:52:56.959Z,5.77
2018-09-03T14:55:26.253Z,5.87
2018-09-03T14:57:55.403Z,6.07
2018-09-03T15:00:24.832Z,6.10
2018-09-03T15:02:54.059Z,6.63
2018-09-03T15:05:23.250Z,6.37
2018-09-03T15:07:52.499Z,6.20
2018-09-03T15:10:21.391Z,5.93
2018-09-03T15:12:50.527Z,6.90
2018-09-03T15:15:19.767Z,6.23
2018-09-03T15:17:49.015Z,6.77
2018-09-03T15:20:18.367Z,6.63
2018-09-03T15:22:47.573Z,5.87
2018-09-03T15:25:16.867Z,5.97
2018-09-03T15:27:46.220Z,6.40
2018-09-03T15:30:15.471Z,6.37
2018-09-03T15:32:44.669Z,6.03
2018-09-03T15:35:14.007Z,6.40
2018-09-03T15:37:43.151Z,6.73
2018-09-03T15:40:12.415Z,6.57
2018-09-03T15:42:41.615Z,6.60
2018-09-03T15:45:11.012Z,5.87
2018-09-03T15:47:40.166Z,6.23
2018-09-03T15:50:09.660Z,6.57
2018-09-03T15:52:38.867Z,6.17
2018-09-03T15:55:08.172Z,7.20
2018-09-03T15:57:37.494Z,6.20
2018-09-03T16:00:07.835Z,6.60
2018-09-03T16:02:36.880Z,6.03
2018-09-03T16:05:06.375Z,6.20
2018-09-03T16:07:35.336Z,6.30
2018-09-03T16:10:04.620Z,6.50
2018-09-03T16:12:33.803Z,6.33
2018-09-03T16:15:02.788Z,6.93
2018-09-03T16:17:31.835Z,6.90
2018-09-03T16:20:00.795Z,6.70
2018-09-03T16:22:30.146Z,6.30
2018-09-03T16:24:59.527Z,6.73
2018-09-03T16:27:28.891Z,5.87
2018-09-03T16:29:58.293Z,6.83
2018-09-03T16:32:27.433Z,6.67
2018-09-03T16:34:56.715Z,6.20
2018-09-03T16:37:26.034Z,6.20
2018-09-03T16:39:54.939Z,6.27
2018-09-03T16:42:24.587Z,6.37
2018-09-03T16:44:54.036Z,6.50
2018-09-03T16:47:22.991Z,6.30
2018-09-03T16:49:52.428Z,6.00
2018-09-03T16:52:21.600Z,6.40
2018-09-03T16:54:50.773Z,5.43
2018-09-03T16:57:20.224Z,6.07
2018-09-03T16:59:49.457Z,6.63
2018-09-03T17:02:18.672Z,5.97
2018-09-03T17:04:47.555Z,6.30
2018-09-03T17:07:16.628Z,6.27
2018-09-03T17:09:45.887Z,6.00
2018-09-03T17:12:14.867Z,5.90
2018-09-03T17:14:44.188Z,6.87
2018-09-03T17:17:13.005Z,6.00
2018-09-03T17:19:42.478Z,6.10
2018-09-03T17:22:11.508Z,6.43
2018-09-03T17:24:40.696Z,5.60
2018-09-03T17:27:10.012Z,6.23
2018-09-03T17:29:39.213Z,6.17
2018-09-03T17:32:08.563Z,5.70
2018-09-03T17:34:38.041Z,6.43
2018-09-03T17:37:07.358Z,6.17
2018-09-03T17:39:36.647Z,6.10
2018-09-03T17:42:05.960Z,6.13
2018-09-03T17:44:34.999Z,5.97
2018-09-03T17:47:04.363Z,6.30
2018-09-03T17:49:33.414Z,6.17
2018-09-03T17:52:02.557Z,5.97
2018-09-03T17:54:31.783Z,6.40
2018-09-03T17:57:00.764Z,6.83
2018-09-03T17:59:29.890Z,7.23
2018-09-03T18:01:59.058Z,6.50
2018-09-03T18:04:28.454Z,6.40
2018-09-03T18:06:57.775Z,6.57
2018-09-03T18:09:26.684Z,6.80
2018-09-03T18:11:55.958Z,6.97
2018-09-03T18:14:25.268Z,6.73
2018-09-03T18:16:54.495Z,7.37
2018-09-03T18:19:24.511Z,6.90
2018-09-03T18:21:53.879Z,6.67
2018-09-03T18:24:23.139Z,7.50
2018-09-03T18:26:52.484Z,6.93
2018-09-03T18:29:21.365Z,6.60
2018-09-03T18:31:50.626Z,7.03
2018-09-03T18:34:19.782Z,6.60
2018-09-03T18:36:49.106Z,7.17
2018-09-03T18:39:18.056Z,6.97
2018-09-03T18:41:47.515Z,7.53
2018-09-03T18:44:16.751Z,6.53
2018-09-03T18:46:46.111Z,6.63
2018-09-03T18:49:15.324Z,7.23
2018-09-03T18:51:46.328Z,6.60
2018-09-03T18:54:15.634Z,6.53
2018-09-03T18:56:44.949Z,7.30
2018-09-03T18:59:14.250Z,6.70
2018-09-03T19:01:43.632Z,7.57
2018-09-03T19:04:12.892Z,7.47
2018-09-03T19:06:42.279Z,6.77
2018-09-03T19:09:11.444Z,6.83
2018-09-03T19:11:40.747Z,7.53
2018-09-03T19:14:09.979Z,6.60
2018-09-03T19:16:39.556Z,6.53
2018-09-03T19:19:08.826Z,7.60
2018-09-03T19:21:38.125Z,6.70
2018-09-03T19:24:07.301Z,6.93
2018-09-03T19:26:36.723Z,7.37
2018-09-03T19:29:05.763Z,6.50
2018-09-03T19:31:35.130Z,7.57
2018-09-03T19:34:05.153Z,6.57
2018-09-03T19:36:34.628Z,6.60
2018-09-03T19:39:04.096Z,6.87
2018-09-03T19:41:33.399Z,6.27
2018-09-03T19:44:02.792Z,7.10
2018-09-03T19:46:31.807Z,6.70
2018-09-03T19:49:01.235Z,7.13
2018-09-03T19:51:30.297Z,6.70
2018-09-03T19:53:59.522Z,6.13
2018-09-03T19:56:28.910Z,6.47
2018-09-03T19:58:57.824Z,6.53
2018-09-03T20:01:27.085Z,7.03
2018-09-03T20:03:56.198Z,6.77
2018-09-03T20:06:25.516Z,7.07
2018-09-03T20:08:54.531Z,6.77
2018-09-03T20:11:23.861Z,6.80
2018-09-03T20:13:53.079Z,6.23
2018-09-03T20:16:22.031Z,6.83
2018-09-03T20:18:51.065Z,6.30
2018-09-03T20:21:20.456Z,7.03
2018-09-03T20:23:49.582Z,6.70
2018-09-03T20:26:18.643Z,6.50
2018-09-03T20:28:48.026Z,6.93
2018-09-03T20:31:17.375Z,7.87
2018-09-03T20:33:46.724Z,7.20
2018-09-03T20:36:16.183Z,7.00
2018-09-03T20:38:45.627Z,7.00
2018-09-03T20:41:15.023Z,6.97
2018-09-03T20:43:44.223Z,6.97
2018-09-03T20:46:13.253Z,7.50
2018-09-03T20:48:42.699Z,7.40
2018-09-03T20:51:11.759Z,7.53
2018-09-03T20:53:41.036Z,7.57
2018-09-03T20:56:10.032Z,7.20
2018-09-03T20:58:38.962Z,7.43
2018-09-03T21:01:08.442Z,7.37
2018-09-03T21:03:37.792Z,7.37
2018-09-03T21:06:06.892Z,7.43
2018-09-03T21:08:36.175Z,7.27
2018-09-03T21:11:05.505Z,7.77
2018-09-03T21:13:34.884Z,6.97
2018-09-03T21:16:03.896Z,7.53
2018-09-03T21:18:33.330Z,6.83
2018-09-03T21:21:02.719Z,7.10
2018-09-03T21:23:32.044Z,7.17
2018-09-03T21:26:01.380Z,6.60
2018-09-03T21:28:30.960Z,7.90
2018-09-03T21:31:00.349Z,7.47
2018-09-03T21:33:29.352Z,6.83
2018-09-03T21:35:58.546Z,7.43
2018-09-03T21:38:28.024Z,6.93
2018-09-03T21:40:56.949Z,7.07
2018-09-03T21:43:26.273Z,7.10
2018-09-03T21:45:55.485Z,7.13
2018-09-03T21:48:24.806Z,7.10
2018-09-03T21:50:53.915Z,7.10
2018-09-03T21:53:23.408Z,6.80
2018-09-03T21:55:52.751Z,7.10
2018-09-03T21:58:22.108Z,6.47
2018-09-03T22:00:51.464Z,7.37
2018-09-03T22:03:20.807Z,6.60
2018-09-03T22:05:50.068Z,6.83
2018-09-03T22:08:19.072Z,6.83
2018-09-03T22:10:48.283Z,7.07
2018-09-03T22:13:17.332Z,7.27
2018-09-03T22:15:46.681Z,7.27
2018-09-03T22:18:15.953Z,6.97
2018-09-03T22:20:45.348Z,6.97
2018-09-03T22:23:14.739Z,6.40
2018-09-03T22:25:43.759Z,6.73
2018-09-03T22:28:13.035Z,7.20
2018-09-03T22:30:42.453Z,6.90
2018-09-03T22:33:11.840Z,7.60
2018-09-03T22:35:41.176Z,7.53
2018-09-03T22:38:10.494Z,7.00
2018-09-03T22:40:39.720Z,7.20
2018-09-03T22:43:09.031Z,6.70
2018-09-03T22:45:38.349Z,6.30
2018-09-03T22:48:07.337Z,7.00
2018-09-03T22:50:36.417Z,7.37
2018-09-03T22:53:05.866Z,7.47
2018-09-03T22:55:34.867Z,6.93
2018-09-03T22:58:03.843Z,7.17
2018-09-03T23:00:33.248Z,7.03
2018-09-03T23:03:02.204Z,7.47
2018-09-03T23:05:31.578Z,7.30
2018-09-03T23:08:00.635Z,7.70
2018-09-03T23:10:29.837Z,7.40
2018-09-03T23:12:59.373Z,6.90
2018-09-03T23:15:28.587Z,7.50
2018-09-03T23:17:57.851Z,7.13
2018-09-03T23:20:27.178Z,7.27
2018-09-03T23:22:56.719Z,7.07
2018-09-03T23:25:26.027Z,7.20
2018-09-03T23:27:55.439Z,7.33
2018-09-03T23:30:24.464Z,7.00
2018-09-03T23:32:53.344Z,7.53
2018-09-03T23:35:22.280Z,6.87
2018-09-03T23:37:51.394Z,7.47
2018-09-03T23:40:20.644Z,6.83
2018-09-03T23:42:49.898Z,7.90
2018-09-03T23:45:19.297Z,7.77
2018-09-03T23:47:48.500Z,6.87
2018-09-03T23:50:17.783Z,7.50
2018-09-03T23:52:47.042Z,7.90
2018-09-03T23:55:15.952Z,7.23
2018-09-03T23:57:45.412Z,8.00
